sensor_id;sensor_type;location;lat;lon;timestamp;P1;durP1;ratioP1;P2;durP2;ratioP2
15506;SDS011;7855;52.210;5.982;2022-08-19T00:05:47;17;;;10;;
15506;SDS011;7855;52.210;5.982;2022-08-19T00:05:47;15;;;10;;
15506;SDS011;7855;52.210;5.982;2022-08-19T00:07:06;15;;;11;;
15506;SDS011;7855;52.210;5.982;2022-08-19T00:09:21;17;;;12;;
15506;SDS011;7855;52.210;5.982;2022-08-19T00:11:35;25;;;13;;
15506;SDS011;7855;52.210;5.982;2022-08-19T00:13:49;15;;;11;;
15506;SDS011;7855;52.210;5.982;2022-08-19T00:16:03;18;;;11;;
15506;SDS011;7855;52.210;5.982;2022-08-19T00:18:18;22;;;12;;
15506;SDS011;7855;52.210;5.982;2022-08-19T00:20:32;15;;;10;;
15506;SDS011;7855;52.210;5.982;2022-08-19T00:22:47;15;;;11;;
15506;SDS011;7855;52.210;5.982;2022-08-19T00:25:01;23;;;11;;
15506;SDS011;7855;52.210;5.982;2022-08-19T00:27:16;16;;;11;;
15506;SDS011;7855;52.210;5.982;2022-08-19T00:29:30;17;;;12;;
15506;SDS011;7855;52.210;5.982;2022-08-19T00:31:45;19;;;12;;
15506;SDS011;7855;52.210;5.982;2022-08-19T00:33:59;18;;;12;;
15506;SDS011;7855;52.210;5.982;2022-08-19T00:36:13;22;;;13;;
15506;SDS011;7855;52.210;5.982;2022-08-19T00:38:28;16;;;10;;
15506;SDS011;7855;52.210;5.982;2022-08-19T00:40:42;17;;;11;;
15506;SDS011;7855;52.210;5.982;2022-08-19T00:42:57;21;;;12;;
15506;SDS011;7855;52.210;5.982;2022-08-19T00:45:12;20;;;12;;
15506;SDS011;7855;52.210;5.982;2022-08-19T00:47:26;18;;;11;;
15506;SDS011;7855;52.210;5.982;2022-08-19T00:49:41;25;;;14;;
15506;SDS011;7855;52.210;5.982;2022-08-19T00:51:55;18;;;12;;
15506;SDS011;7855;52.210;5.982;2022-08-19T00:54:09;20;;;12;;
15506;SDS011;7855;52.210;5.982;2022-08-19T00:56:24;18;;;12;;
15506;SDS011;7855;52.210;5.982;2022-08-19T00:58:38;21;;;13;;
15506;SDS011;7855;52.210;5.982;2022-08-19T01:00:52;20;;;12;;
15506;SDS011;7855;52.210;5.982;2022-08-19T01:03:08;20;;;12;;
15506;SDS011;7855;52.210;5.982;2022-08-19T01:05:22;18;;;12;;
15506;SDS011;7855;52.210;5.982;2022-08-19T01:07:36;16;;;10;;
15506;SDS011;7855;52.210;5.982;2022-08-19T01:09:50;19;;;12;;
15506;SDS011;7855;52.210;5.982;2022-08-19T01:12:05;16;;;11;;
15506;SDS011;7855;52.210;5.982;2022-08-19T01:14:19;16;;;11;;
15506;SDS011;7855;52.210;5.982;2022-08-19T01:16:33;20;;;13;;
15506;SDS011;7855;52.210;5.982;2022-08-19T01:18:48;15;;;11;;
15506;SDS011;7855;52.210;5.982;2022-08-19T01:21:05;15;;;11;;
15506;SDS011;7855;52.210;5.982;2022-08-19T01:23:17;20;;;11;;
15506;SDS011;7855;52.210;5.982;2022-08-19T01:25:33;19;;;13;;
15506;SDS011;7855;52.210;5.982;2022-08-19T01:27:47;20;;;12;;
15506;SDS011;7855;52.210;5.982;2022-08-19T01:30:00;20;;;12;;
15506;SDS011;7855;52.210;5.982;2022-08-19T01:32:15;20;;;13;;
15506;SDS011;7855;52.210;5.982;2022-08-19T01:34:29;23;;;14;;
15506;SDS011;7855;52.210;5.982;2022-08-19T01:36:44;16;;;11;;
15506;SDS011;7855;52.210;5.982;2022-08-19T01:38:58;27;;;20;;
15506;SDS011;7855;52.210;5.982;2022-08-19T01:41:12;18;;;12;;
15506;SDS011;7855;52.210;5.982;2022-08-19T01:43:27;24;;;12;;
15506;SDS011;7855;52.210;5.982;2022-08-19T01:45:41;21;;;13;;
15506;SDS011;7855;52.210;5.982;2022-08-19T01:47:57;22;;;14;;
15506;SDS011;7855;52.210;5.982;2022-08-19T01:50:10;17;;;12;;
15506;SDS011;7855;52.210;5.982;2022-08-19T01:52:24;19;;;14;;
15506;SDS011;7855;52.210;5.982;2022-08-19T01:54:38;20;;;13;;
15506;SDS011;7855;52.210;5.982;2022-08-19T01:56:53;20;;;13;;
15506;SDS011;7855;52.210;5.982;2022-08-19T01:59:08;20;;;13;;
15506;SDS011;7855;52.210;5.982;2022-08-19T02:01:21;17;;;11;;
15506;SDS011;7855;52.210;5.982;2022-08-19T02:03:36;23;;;14;;
15506;SDS011;7855;52.210;5.982;2022-08-19T02:05:53;23;;;13;;
15506;SDS011;7855;52.210;5.982;2022-08-19T02:08:04;15;;;11;;
15506;SDS011;7855;52.210;5.982;2022-08-19T02:10:19;17;;;11;;
15506;SDS011;7855;52.210;5.982;2022-08-19T02:12:33;19;;;13;;
15506;SDS011;7855;52.210;5.982;2022-08-19T02:14:47;25;;;11;;
15506;SDS011;7855;52.210;5.982;2022-08-19T02:17:02;20;;;11;;
15506;SDS011;7855;52.210;5.982;2022-08-19T02:19:16;24;;;14;;
15506;SDS011;7855;52.210;5.982;2022-08-19T02:21:31;17;;;12;;
15506;SDS011;7855;52.210;5.982;2022-08-19T02:23:45;20;;;13;;
15506;SDS011;7855;52.210;5.982;2022-08-19T02:25:59;21;;;13;;
15506;SDS011;7855;52.210;5.982;2022-08-19T02:28:14;21;;;11;;
15506;SDS011;7855;52.210;5.982;2022-08-19T02:30:28;19;;;11;;
15506;SDS011;7855;52.210;5.982;2022-08-19T02:32:43;19;;;13;;
15506;SDS011;7855;52.210;5.982;2022-08-19T02:34:57;29;;;21;;
15506;SDS011;7855;52.210;5.982;2022-08-19T02:37:12;22;;;14;;
15506;SDS011;7855;52.210;5.982;2022-08-19T02:39:26;23;;;15;;
15506;SDS011;7855;52.210;5.982;2022-08-19T02:41:40;19;;;13;;
15506;SDS011;7855;52.210;5.982;2022-08-19T02:43:55;20;;;12;;
15506;SDS011;7855;52.210;5.982;2022-08-19T02:46:11;19;;;12;;
15506;SDS011;7855;52.210;5.982;2022-08-19T02:48:24;20;;;13;;
15506;SDS011;7855;52.210;5.982;2022-08-19T02:50:39;18;;;12;;
15506;SDS011;7855;52.210;5.982;2022-08-19T02:52:53;17;;;11;;
15506;SDS011;7855;52.210;5.982;2022-08-19T02:55:07;20;;;14;;
15506;SDS011;7855;52.210;5.982;2022-08-19T02:57:21;22;;;13;;
15506;SDS011;7855;52.210;5.982;2022-08-19T02:59:36;21;;;13;;
15506;SDS011;7855;52.210;5.982;2022-08-19T03:01:51;19;;;13;;
15506;SDS011;7855;52.210;5.982;2022-08-19T03:04:05;20;;;13;;
15506;SDS011;7855;52.210;5.982;2022-08-19T03:06:20;21;;;12;;
15506;SDS011;7855;52.210;5.982;2022-08-19T03:08:34;29;;;15;;
15506;SDS011;7855;52.210;5.982;2022-08-19T03:10:48;28;;;15;;
15506;SDS011;7855;52.210;5.982;2022-08-19T03:13:03;20;;;14;;
15506;SDS011;7855;52.210;5.982;2022-08-19T03:15:17;22;;;14;;
15506;SDS011;7855;52.210;5.982;2022-08-19T03:17:32;19;;;12;;
15506;SDS011;7855;52.210;5.982;2022-08-19T03:19:46;22;;;14;;
15506;SDS011;7855;52.210;5.982;2022-08-19T03:22:01;27;;;15;;
15506;SDS011;7855;52.210;5.982;2022-08-19T03:24:15;20;;;14;;
15506;SDS011;7855;52.210;5.982;2022-08-19T03:26:30;22;;;15;;
15506;SDS011;7855;52.210;5.982;2022-08-19T03:28:44;28;;;16;;
15506;SDS011;7855;52.210;5.982;2022-08-19T03:30:59;22;;;15;;
15506;SDS011;7855;52.210;5.982;2022-08-19T03:33:13;23;;;16;;
15506;SDS011;7855;52.210;5.982;2022-08-19T03:35:27;28;;;14;;
15506;SDS011;7855;52.210;5.982;2022-08-19T03:37:42;21;;;13;;
15506;SDS011;7855;52.210;5.982;2022-08-19T03:39:56;20;;;13;;
15506;SDS011;7855;52.210;5.982;2022-08-19T03:42:11;23;;;14;;
15506;SDS011;7855;52.210;5.982;2022-08-19T03:44:25;28;;;15;;
15506;SDS011;7855;52.210;5.982;2022-08-19T03:46:40;20;;;15;;
15506;SDS011;7855;52.210;5.982;2022-08-19T03:48:55;24;;;14;;
15506;SDS011;7855;52.210;5.982;2022-08-19T03:51:14;17;;;12;;
15506;SDS011;7855;52.210;5.982;2022-08-19T03:53:23;22;;;14;;
15506;SDS011;7855;52.210;5.982;2022-08-19T03:55:39;18;;;12;;
15506;SDS011;7855;52.210;5.982;2022-08-19T03:57:52;26;;;13;;
15506;SDS011;7855;52.210;5.982;2022-08-19T04:00:07;20;;;13;;
15506;SDS011;7855;52.210;5.982;2022-08-19T04:02:21;20;;;13;;
15506;SDS011;7855;52.210;5.982;2022-08-19T04:04:35;21;;;14;;
15506;SDS011;7855;52.210;5.982;2022-08-19T04:06:50;32;;;18;;
15506;SDS011;7855;52.210;5.982;2022-08-19T04:09:06;20;;;13;;
15506;SDS011;7855;52.210;5.982;2022-08-19T04:11:20;23;;;15;;
15506;SDS011;7855;52.210;5.982;2022-08-19T04:13:33;22;;;15;;
15506;SDS011;7855;52.210;5.982;2022-08-19T04:15:47;27;;;16;;
15506;SDS011;7855;52.210;5.982;2022-08-19T04:18:02;23;;;16;;
15506;SDS011;7855;52.210;5.982;2022-08-19T04:20:16;23;;;15;;
15506;SDS011;7855;52.210;5.982;2022-08-19T04:22:30;25;;;16;;
15506;SDS011;7855;52.210;5.982;2022-08-19T04:24:45;27;;;18;;
15506;SDS011;7855;52.210;5.982;2022-08-19T04:27:00;24;;;17;;
15506;SDS011;7855;52.210;5.982;2022-08-19T04:29:17;32;;;17;;
15506;SDS011;7855;52.210;5.982;2022-08-19T04:31:28;24;;;16;;
15506;SDS011;7855;52.210;5.982;2022-08-19T04:33:42;26;;;16;;
15506;SDS011;7855;52.210;5.982;2022-08-19T04:35:57;24;;;15;;
15506;SDS011;7855;52.210;5.982;2022-08-19T04:38:11;26;;;15;;
15506;SDS011;7855;52.210;5.982;2022-08-19T04:40:25;27;;;13;;
15506;SDS011;7855;52.210;5.982;2022-08-19T04:42:40;23;;;14;;
15506;SDS011;7855;52.210;5.982;2022-08-19T04:44:54;21;;;13;;
15506;SDS011;7855;52.210;5.982;2022-08-19T04:47:09;19;;;13;;
15506;SDS011;7855;52.210;5.982;2022-08-19T04:49:23;20;;;13;;
15506;SDS011;7855;52.210;5.982;2022-08-19T04:51:39;26;;;14;;
15506;SDS011;7855;52.210;5.982;2022-08-19T04:53:52;24;;;15;;
15506;SDS011;7855;52.210;5.982;2022-08-19T04:56:07;28;;;15;;
15506;SDS011;7855;52.210;5.982;2022-08-19T04:58:21;23;;;15;;
15506;SDS011;7855;52.210;5.982;2022-08-19T05:00:37;21;;;14;;
15506;SDS011;7855;52.210;5.982;2022-08-19T05:02:50;25;;;14;;
15506;SDS011;7855;52.210;5.982;2022-08-19T05:05:05;22;;;14;;
15506;SDS011;7855;52.210;5.982;2022-08-19T05:07:19;23;;;13;;
15506;SDS011;7855;52.210;5.982;2022-08-19T05:09:33;32;;;14;;
15506;SDS011;7855;52.210;5.982;2022-08-19T05:11:48;24;;;13;;
15506;SDS011;7855;52.210;5.982;2022-08-19T05:14:02;22;;;14;;
15506;SDS011;7855;52.210;5.982;2022-08-19T05:16:18;21;;;12;;
15506;SDS011;7855;52.210;5.982;2022-08-19T05:18:31;19;;;12;;
15506;SDS011;7855;52.210;5.982;2022-08-19T05:20:45;22;;;12;;
15506;SDS011;7855;52.210;5.982;2022-08-19T05:23:00;20;;;13;;
15506;SDS011;7855;52.210;5.982;2022-08-19T05:25:16;20;;;13;;
15506;SDS011;7855;52.210;5.982;2022-08-19T05:27:29;22;;;15;;
15506;SDS011;7855;52.210;5.982;2022-08-19T05:29:43;27;;;15;;
15506;SDS011;7855;52.210;5.982;2022-08-19T05:31:58;28;;;17;;
15506;SDS011;7855;52.210;5.982;2022-08-19T05:34:12;23;;;15;;
15506;SDS011;7855;52.210;5.982;2022-08-19T05:38:41;26;;;15;;
15506;SDS011;7855;52.210;5.982;2022-08-19T05:43:10;24;;;15;;
15506;SDS011;7855;52.210;5.982;2022-08-19T05:45:24;26;;;17;;
15506;SDS011;7855;52.210;5.982;2022-08-19T05:47:39;23;;;15;;
15506;SDS011;7855;52.210;5.982;2022-08-19T05:49:53;29;;;16;;
15506;SDS011;7855;52.210;5.982;2022-08-19T05:52:08;22;;;15;;
15506;SDS011;7855;52.210;5.982;2022-08-19T05:54:23;27;;;17;;
15506;SDS011;7855;52.210;5.982;2022-08-19T05:56:37;28;;;16;;
15506;SDS011;7855;52.210;5.982;2022-08-19T05:58:51;24;;;15;;
15506;SDS011;7855;52.210;5.982;2022-08-19T06:01:09;28;;;18;;
15506;SDS011;7855;52.210;5.982;2022-08-19T06:03:20;25;;;16;;
15506;SDS011;7855;52.210;5.982;2022-08-19T06:05:34;22;;;14;;
15506;SDS011;7855;52.210;5.982;2022-08-19T06:07:49;20;;;14;;
15506;SDS011;7855;52.210;5.982;2022-08-19T06:10:03;23;;;16;;
15506;SDS011;7855;52.210;5.982;2022-08-19T06:12:18;30;;;18;;
15506;SDS011;7855;52.210;5.982;2022-08-19T06:14:33;22;;;16;;
15506;SDS011;7855;52.210;5.982;2022-08-19T06:16:47;25;;;16;;
15506;SDS011;7855;52.210;5.982;2022-08-19T06:19:03;29;;;15;;
15506;SDS011;7855;52.210;5.982;2022-08-19T06:21:16;22;;;15;;
15506;SDS011;7855;52.210;5.982;2022-08-19T06:23:30;25;;;16;;
15506;SDS011;7855;52.210;5.982;2022-08-19T06:25:45;19;;;13;;
15506;SDS011;7855;52.210;5.982;2022-08-19T06:27:59;32;;;17;;
15506;SDS011;7855;52.210;5.982;2022-08-19T06:30:14;29;;;18;;
15506;SDS011;7855;52.210;5.982;2022-08-19T06:32:28;29;;;18;;
15506;SDS011;7855;52.210;5.982;2022-08-19T06:34:42;26;;;18;;
15506;SDS011;7855;52.210;5.982;2022-08-19T06:36:57;23;;;16;;
15506;SDS011;7855;52.210;5.982;2022-08-19T06:39:12;24;;;17;;
15506;SDS011;7855;52.210;5.982;2022-08-19T06:41:25;31;;;20;;
15506;SDS011;7855;52.210;5.982;2022-08-19T06:43:40;28;;;17;;
15506;SDS011;7855;52.210;5.982;2022-08-19T06:45:55;23;;;15;;
15506;SDS011;7855;52.210;5.982;2022-08-19T06:48:09;22;;;15;;
15506;SDS011;7855;52.210;5.982;2022-08-19T06:50:24;21;;;14;;
15506;SDS011;7855;52.210;5.982;2022-08-19T06:52:38;33;;;15;;
15506;SDS011;7855;52.210;5.982;2022-08-19T06:54:51;25;;;14;;
15506;SDS011;7855;52.210;5.982;2022-08-19T06:57:06;25;;;15;;
15506;SDS011;7855;52.210;5.982;2022-08-19T06:59:21;20;;;14;;
15506;SDS011;7855;52.210;5.982;2022-08-19T07:01:35;25;;;14;;
15506;SDS011;7855;52.210;5.982;2022-08-19T07:03:49;20;;;12;;
15506;SDS011;7855;52.210;5.982;2022-08-19T07:06:04;22;;;14;;
15506;SDS011;7855;52.210;5.982;2022-08-19T07:08:18;22;;;15;;
15506;SDS011;7855;52.210;5.982;2022-08-19T07:10:32;25;;;16;;
15506;SDS011;7855;52.210;5.982;2022-08-19T07:12:47;26;;;19;;
15506;SDS011;7855;52.210;5.982;2022-08-19T07:15:01;32;;;18;;
15506;SDS011;7855;52.210;5.982;2022-08-19T07:17:16;24;;;18;;
15506;SDS011;7855;52.210;5.982;2022-08-19T07:19:30;30;;;19;;
15506;SDS011;7855;52.210;5.982;2022-08-19T07:21:45;32;;;16;;
15506;SDS011;7855;52.210;5.982;2022-08-19T07:23:59;28;;;18;;
15506;SDS011;7855;52.210;5.982;2022-08-19T07:26:14;40;;;26;;
15506;SDS011;7855;52.210;5.982;2022-08-19T07:28:28;39;;;25;;
15506;SDS011;7855;52.210;5.982;2022-08-19T07:30:42;35;;;22;;
15506;SDS011;7855;52.210;5.982;2022-08-19T07:32:57;43;;;23;;
15506;SDS011;7855;52.210;5.982;2022-08-19T07:35:11;34;;;20;;
15506;SDS011;7855;52.210;5.982;2022-08-19T07:37:26;34;;;21;;
15506;SDS011;7855;52.210;5.982;2022-08-19T07:39:40;34;;;20;;
15506;SDS011;7855;52.210;5.982;2022-08-19T07:41:56;27;;;18;;
15506;SDS011;7855;52.210;5.982;2022-08-19T07:44:09;32;;;18;;
15506;SDS011;7855;52.210;5.982;2022-08-19T07:46:24;31;;;18;;
15506;SDS011;7855;52.210;5.982;2022-08-19T07:48:39;29;;;18;;
15506;SDS011;7855;52.210;5.982;2022-08-19T07:50:53;36;;;20;;
15506;SDS011;7855;52.210;5.982;2022-08-19T07:53:07;30;;;21;;
15506;SDS011;7855;52.210;5.982;2022-08-19T07:55:23;29;;;20;;
15506;SDS011;7855;52.210;5.982;2022-08-19T07:57:36;32;;;21;;
15506;SDS011;7855;52.210;5.982;2022-08-19T07:59:50;29;;;21;;
15506;SDS011;7855;52.210;5.982;2022-08-19T08:02:05;31;;;22;;
15506;SDS011;7855;52.210;5.982;2022-08-19T08:04:19;41;;;23;;
15506;SDS011;7855;52.210;5.982;2022-08-19T08:06:34;32;;;21;;
15506;SDS011;7855;52.210;5.982;2022-08-19T08:08:48;31;;;20;;
15506;SDS011;7855;52.210;5.982;2022-08-19T08:11:03;33;;;22;;
15506;SDS011;7855;52.210;5.982;2022-08-19T08:13:17;31;;;19;;
15506;SDS011;7855;52.210;5.982;2022-08-19T08:15:33;34;;;21;;
15506;SDS011;7855;52.210;5.982;2022-08-19T08:17:46;32;;;21;;
15506;SDS011;7855;52.210;5.982;2022-08-19T08:20:01;37;;;24;;
15506;SDS011;7855;52.210;5.982;2022-08-19T08:22:15;45;;;24;;
15506;SDS011;7855;52.210;5.982;2022-08-19T08:24:30;34;;;23;;
15506;SDS011;7855;52.210;5.982;2022-08-19T08:26:44;39;;;24;;
15506;SDS011;7855;52.210;5.982;2022-08-19T08:28:58;38;;;24;;
15506;SDS011;7855;52.210;5.982;2022-08-19T08:31:13;39;;;24;;
15506;SDS011;7855;52.210;5.982;2022-08-19T08:33:28;37;;;24;;
15506;SDS011;7855;52.210;5.982;2022-08-19T08:35:41;41;;;25;;
15506;SDS011;7855;52.210;5.982;2022-08-19T08:37:56;33;;;22;;
15506;SDS011;7855;52.210;5.982;2022-08-19T08:40:16;32;;;22;;
15506;SDS011;7855;52.210;5.982;2022-08-19T08:42:27;30;;;20;;
15506;SDS011;7855;52.210;5.982;2022-08-19T08:44:40;28;;;18;;
15506;SDS011;7855;52.210;5.982;2022-08-19T08:46:55;28;;;20;;
15506;SDS011;7855;52.210;5.982;2022-08-19T08:49:13;36;;;20;;
15506;SDS011;7855;52.210;5.982;2022-08-19T08:51:24;29;;;19;;
15506;SDS011;7855;52.210;5.982;2022-08-19T08:53:37;27;;;18;;
15506;SDS011;7855;52.210;5.982;2022-08-19T08:55:52;25;;;15;;
15506;SDS011;7855;52.210;5.982;2022-08-19T08:58:07;27;;;17;;
15506;SDS011;7855;52.210;5.982;2022-08-19T09:00:22;27;;;15;;
15506;SDS011;7855;52.210;5.982;2022-08-19T09:02:35;22;;;15;;
15506;SDS011;7855;52.210;5.982;2022-08-19T09:04:50;21;;;14;;
15506;SDS011;7855;52.210;5.982;2022-08-19T09:07:10;22;;;14;;
15506;SDS011;7855;52.210;5.982;2022-08-19T09:09:20;19;;;14;;
15506;SDS011;7855;52.210;5.982;2022-08-19T09:11:38;20;;;13;;
15506;SDS011;7855;52.210;5.982;2022-08-19T09:13:52;18;;;12;;
15506;SDS011;7855;52.210;5.982;2022-08-19T09:16:03;18;;;12;;
15506;SDS011;7855;52.210;5.982;2022-08-19T09:18:15;22;;;12;;
15506;SDS011;7855;52.210;5.982;2022-08-19T09:20:30;17;;;11;;
15506;SDS011;7855;52.210;5.982;2022-08-19T09:22:44;17;;;11;;
15506;SDS011;7855;52.210;5.982;2022-08-19T09:24:58;19;;;13;;
15506;SDS011;7855;52.210;5.982;2022-08-19T09:27:13;17;;;11;;
15506;SDS011;7855;52.210;5.982;2022-08-19T09:29:27;26;;;11;;
15506;SDS011;7855;52.210;5.982;2022-08-19T09:31:42;20;;;13;;
15506;SDS011;7855;52.210;5.982;2022-08-19T09:33:56;23;;;14;;
15506;SDS011;7855;52.210;5.982;2022-08-19T09:36:12;20;;;13;;
15506;SDS011;7855;52.210;5.982;2022-08-19T09:38:24;22;;;14;;
15506;SDS011;7855;52.210;5.982;2022-08-19T09:40:38;23;;;14;;
15506;SDS011;7855;52.210;5.982;2022-08-19T09:42:53;20;;;14;;
15506;SDS011;7855;52.210;5.982;2022-08-19T09:45:08;24;;;14;;
15506;SDS011;7855;52.210;5.982;2022-08-19T09:47:22;20;;;14;;
15506;SDS011;7855;52.210;5.982;2022-08-19T09:49:37;18;;;12;;
15506;SDS011;7855;52.210;5.982;2022-08-19T09:51:51;24;;;15;;
15506;SDS011;7855;52.210;5.982;2022-08-19T09:54:05;25;;;13;;
15506;SDS011;7855;52.210;5.982;2022-08-19T09:56:21;21;;;14;;
15506;SDS011;7855;52.210;5.982;2022-08-19T09:58:35;19;;;13;;
15506;SDS011;7855;52.210;5.982;2022-08-19T10:00:49;20;;;13;;
15506;SDS011;7855;52.210;5.982;2022-08-19T10:03:03;25;;;15;;
15506;SDS011;7855;52.210;5.982;2022-08-19T10:05:18;18;;;13;;
15506;SDS011;7855;52.210;5.982;2022-08-19T10:07:32;19;;;14;;
15506;SDS011;7855;52.210;5.982;2022-08-19T10:09:47;23;;;13;;
15506;SDS011;7855;52.210;5.982;2022-08-19T10:12:02;24;;;16;;
15506;SDS011;7855;52.210;5.982;2022-08-19T10:14:15;21;;;15;;
15506;SDS011;7855;52.210;5.982;2022-08-19T10:16:30;25;;;15;;
15506;SDS011;7855;52.210;5.982;2022-08-19T10:18:45;24;;;16;;
15506;SDS011;7855;52.210;5.982;2022-08-19T10:21:03;22;;;16;;
15506;SDS011;7855;52.210;5.982;2022-08-19T10:23:13;22;;;14;;
15506;SDS011;7855;52.210;5.982;2022-08-19T10:25:27;23;;;16;;
15506;SDS011;7855;52.210;5.982;2022-08-19T10:27:42;22;;;14;;
15506;SDS011;7855;52.210;5.982;2022-08-19T10:29:57;19;;;14;;
15506;SDS011;7855;52.210;5.982;2022-08-19T10:32:11;24;;;14;;
15506;SDS011;7855;52.210;5.982;2022-08-19T10:34:26;21;;;13;;
15506;SDS011;7855;52.210;5.982;2022-08-19T10:36:40;24;;;13;;
15506;SDS011;7855;52.210;5.982;2022-08-19T10:38:55;26;;;15;;
15506;SDS011;7855;52.210;5.982;2022-08-19T10:41:10;20;;;13;;
15506;SDS011;7855;52.210;5.982;2022-08-19T10:43:23;16;;;10;;
15506;SDS011;7855;52.210;5.982;2022-08-19T10:45:38;20;;;10;;
15506;SDS011;7855;52.210;5.982;2022-08-19T10:47:52;21;;;12;;
15506;SDS011;7855;52.210;5.982;2022-08-19T10:50:07;24;;;12;;
15506;SDS011;7855;52.210;5.982;2022-08-19T10:52:21;22;;;11;;
15506;SDS011;7855;52.210;5.982;2022-08-19T10:54:36;19;;;12;;
15506;SDS011;7855;52.210;5.982;2022-08-19T10:56:50;18;;;12;;
15506;SDS011;7855;52.210;5.982;2022-08-19T10:59:05;19;;;13;;
15506;SDS011;7855;52.210;5.982;2022-08-19T11:01:19;18;;;12;;
15506;SDS011;7855;52.210;5.982;2022-08-19T11:03:33;19;;;12;;
15506;SDS011;7855;52.210;5.982;2022-08-19T11:05:56;21;;;11;;
15506;SDS011;7855;52.210;5.982;2022-08-19T11:08:02;21;;;11;;
15506;SDS011;7855;52.210;5.982;2022-08-19T11:10:17;18;;;11;;
15506;SDS011;7855;52.210;5.982;2022-08-19T11:14:45;19;;;9;;
15506;SDS011;7855;52.210;5.982;2022-08-19T11:17:00;17;;;10;;
15506;SDS011;7855;52.210;5.982;2022-08-19T11:19:15;16;;;10;;
15506;SDS011;7855;52.210;5.982;2022-08-19T11:21:30;14;;;9;;
15506;SDS011;7855;52.210;5.982;2022-08-19T11:23:44;18;;;11;;
15506;SDS011;7855;52.210;5.982;2022-08-19T11:25:58;14;;;9;;
15506;SDS011;7855;52.210;5.982;2022-08-19T11:28:12;20;;;11;;
15506;SDS011;7855;52.210;5.982;2022-08-19T11:30:27;15;;;10;;
15506;SDS011;7855;52.210;5.982;2022-08-19T11:32:41;16;;;12;;
15506;SDS011;7855;52.210;5.982;2022-08-19T11:34:56;13;;;10;;
15506;SDS011;7855;52.210;5.982;2022-08-19T11:37:10;13;;;8;;
15506;SDS011;7855;52.210;5.982;2022-08-19T11:39:25;18;;;10;;
15506;SDS011;7855;52.210;5.982;2022-08-19T11:41:39;24;;;10;;
15506;SDS011;7855;52.210;5.982;2022-08-19T11:43:54;17;;;11;;
15506;SDS011;7855;52.210;5.982;2022-08-19T11:46:09;14;;;9;;
15506;SDS011;7855;52.210;5.982;2022-08-19T11:48:23;14;;;9;;
15506;SDS011;7855;52.210;5.982;2022-08-19T11:50:37;15;;;7;;
15506;SDS011;7855;52.210;5.982;2022-08-19T11:52:53;16;;;9;;
15506;SDS011;7855;52.210;5.982;2022-08-19T11:55:06;15;;;9;;
15506;SDS011;7855;52.210;5.982;2022-08-19T11:57:20;14;;;9;;
15506;SDS011;7855;52.210;5.982;2022-08-19T11:59:35;21;;;9;;
15506;SDS011;7855;52.210;5.982;2022-08-19T12:01:48;14;;;7;;
15506;SDS011;7855;52.210;5.982;2022-08-19T12:04:02;11;;;7;;
15506;SDS011;7855;52.210;5.982;2022-08-19T12:06:18;14;;;8;;
15506;SDS011;7855;52.210;5.982;2022-08-19T12:08:31;17;;;8;;
15506;SDS011;7855;52.210;5.982;2022-08-19T12:10:46;18;;;10;;
15506;SDS011;7855;52.210;5.982;2022-08-19T12:13:00;14;;;8;;
15506;SDS011;7855;52.210;5.982;2022-08-19T12:15:15;21;;;10;;
15506;SDS011;7855;52.210;5.982;2022-08-19T12:17:29;15;;;8;;
15506;SDS011;7855;52.210;5.982;2022-08-19T12:19:43;15;;;9;;
15506;SDS011;7855;52.210;5.982;2022-08-19T12:21:58;13;;;7;;
15506;SDS011;7855;52.210;5.982;2022-08-19T12:24:13;12;;;7;;
15506;SDS011;7855;52.210;5.982;2022-08-19T12:26:28;18;;;7;;
15506;SDS011;7855;52.210;5.982;2022-08-19T12:28:41;9;;;4;;
15506;SDS011;7855;52.210;5.982;2022-08-19T12:30:56;9;;;5;;
15506;SDS011;7855;52.210;5.982;2022-08-19T12:33:10;13;;;6;;
15506;SDS011;7855;52.210;5.982;2022-08-19T12:35:25;10;;;6;;
15506;SDS011;7855;52.210;5.982;2022-08-19T12:37:39;11;;;5;;
15506;SDS011;7855;52.210;5.982;2022-08-19T12:39:54;10;;;6;;
15506;SDS011;7855;52.210;5.982;2022-08-19T12:42:08;9;;;5;;
15506;SDS011;7855;52.210;5.982;2022-08-19T12:44:23;14;;;7;;
15506;SDS011;7855;52.210;5.982;2022-08-19T12:46:37;11;;;6;;
15506;SDS011;7855;52.210;5.982;2022-08-19T12:48:52;14;;;7;;
15506;SDS011;7855;52.210;5.982;2022-08-19T12:51:06;9;;;5;;
15506;SDS011;7855;52.210;5.982;2022-08-19T12:53:20;10;;;6;;
15506;SDS011;7855;52.210;5.982;2022-08-19T12:55:34;11;;;6;;
15506;SDS011;7855;52.210;5.982;2022-08-19T12:57:49;9;;;6;;
15506;SDS011;7855;52.210;5.982;2022-08-19T13:00:08;8;;;5;;
15506;SDS011;7855;52.210;5.982;2022-08-19T13:02:19;12;;;5;;
15506;SDS011;7855;52.210;5.982;2022-08-19T13:04:33;9;;;5;;
15506;SDS011;7855;52.210;5.982;2022-08-19T13:06:47;8;;;5;;
15506;SDS011;7855;52.210;5.982;2022-08-19T13:09:01;10;;;6;;
15506;SDS011;7855;52.210;5.982;2022-08-19T13:11:17;11;;;6;;
15506;SDS011;7855;52.210;5.982;2022-08-19T13:13:30;17;;;7;;
15506;SDS011;7855;52.210;5.982;2022-08-19T13:15:45;10;;;5;;
15506;SDS011;7855;52.210;5.982;2022-08-19T13:17:59;12;;;6;;
15506;SDS011;7855;52.210;5.982;2022-08-19T13:20:15;12;;;7;;
15506;SDS011;7855;52.210;5.982;2022-08-19T13:22:28;13;;;7;;
15506;SDS011;7855;52.210;5.982;2022-08-19T13:24:43;11;;;6;;
15506;SDS011;7855;52.210;5.982;2022-08-19T13:26:58;11;;;6;;
15506;SDS011;7855;52.210;5.982;2022-08-19T13:29:12;11;;;6;;
15506;SDS011;7855;52.210;5.982;2022-08-19T13:31:28;10;;;7;;
15506;SDS011;7855;52.210;5.982;2022-08-19T13:33:40;12;;;5;;
15506;SDS011;7855;52.210;5.982;2022-08-19T13:35:59;12;;;6;;
15506;SDS011;7855;52.210;5.982;2022-08-19T13:38:10;13;;;7;;
15506;SDS011;7855;52.210;5.982;2022-08-19T13:40:24;14;;;7;;
15506;SDS011;7855;52.210;5.982;2022-08-19T13:42:39;14;;;7;;
15506;SDS011;7855;52.210;5.982;2022-08-19T13:44:53;15;;;7;;
15506;SDS011;7855;52.210;5.982;2022-08-19T13:47:07;12;;;7;;
15506;SDS011;7855;52.210;5.982;2022-08-19T13:49:22;13;;;7;;
15506;SDS011;7855;52.210;5.982;2022-08-19T13:51:36;12;;;6;;
15506;SDS011;7855;52.210;5.982;2022-08-19T13:53:50;19;;;8;;
15506;SDS011;7855;52.210;5.982;2022-08-19T13:56:05;16;;;9;;
15506;SDS011;7855;52.210;5.982;2022-08-19T13:58:19;10;;;7;;
15506;SDS011;7855;52.210;5.982;2022-08-19T14:00:35;20;;;8;;
15506;SDS011;7855;52.210;5.982;2022-08-19T14:02:50;14;;;7;;
15506;SDS011;7855;52.210;5.982;2022-08-19T14:05:03;14;;;8;;
15506;SDS011;7855;52.210;5.982;2022-08-19T14:07:17;12;;;7;;
15506;SDS011;7855;52.210;5.982;2022-08-19T14:09:31;17;;;9;;
15506;SDS011;7855;52.210;5.982;2022-08-19T14:11:46;15;;;10;;
15506;SDS011;7855;52.210;5.982;2022-08-19T14:14:01;16;;;11;;
15506;SDS011;7855;52.210;5.982;2022-08-19T14:16:15;18;;;11;;
15506;SDS011;7855;52.210;5.982;2022-08-19T14:18:29;19;;;13;;
15506;SDS011;7855;52.210;5.982;2022-08-19T14:20:44;17;;;13;;
15506;SDS011;7855;52.210;5.982;2022-08-19T14:22:58;21;;;14;;
15506;SDS011;7855;52.210;5.982;2022-08-19T14:25:12;18;;;14;;
15506;SDS011;7855;52.210;5.982;2022-08-19T14:27:26;23;;;16;;
15506;SDS011;7855;52.210;5.982;2022-08-19T14:29:41;22;;;14;;
15506;SDS011;7855;52.210;5.982;2022-08-19T14:31:55;21;;;14;;
15506;SDS011;7855;52.210;5.982;2022-08-19T14:34:10;22;;;16;;
15506;SDS011;7855;52.210;5.982;2022-08-19T14:36:24;24;;;16;;
15506;SDS011;7855;52.210;5.982;2022-08-19T14:38:39;20;;;15;;
15506;SDS011;7855;52.210;5.982;2022-08-19T14:40:53;18;;;12;;
15506;SDS011;7855;52.210;5.982;2022-08-19T14:43:08;21;;;15;;
15506;SDS011;7855;52.210;5.982;2022-08-19T14:45:22;24;;;15;;
15506;SDS011;7855;52.210;5.982;2022-08-19T14:47:36;18;;;11;;